Terminal Aerodrome Forecast
Issued by NWS Cleveland, OH

Home | Current Version | Previous Version | Graphics & Text | Print | Product List | Glossary On
Versions: 1 2 3 4 5 6 7 8 9 10 11 12 13 14 15 16 17 18 19 20 21 22
000
FTUS41 KCLE 191400 CCA
TAFTOL
TAF COR
KTOL 191431Z 1914/2012 19012KT P6SM SCT040 BKN100
     FM191530 19014G22KT 3SM -SN SCT015 OVC035
     FM192100 23015G25KT 4SM -SN OVC015
     FM200000 25014G24KT P6SM OVC030=

USA.gov is the U.S. government's official web portal to all federal, state and local government web resources and services.